Time;durP1;ratioP1;P1;durP2;ratioP2;P2;SDS_P1;SDS_P2;PMS_P1;PMS_P2;Temp;Humidity;BMP_temperature;BMP_pressure;BME280_temperature;BME280_humidity;BME280_pressure;Samples;Min_cycle;Max_cycle;Signal;HPM_P1;HPM_P2
2022/09/28 03:50:55;;;;;;;1.45;1.30;;;;;;;9.54;96.70;99146.97;6655900;26;20059;-92
2022/09/28 04:02:09;;;;;;;1.60;1.50;;;;;;;9.50;96.31;99156.44;6651110;26;218998;-91
2022/09/28 04:05:12;;;;;;;1.52;1.45;;;;;;;9.53;97.98;99151.50;6657981;26;33706;-89
2022/09/28 04:08:15;;;;;;;1.27;1.20;;;;;;;9.49;97.26;99147.56;6659600;26;34764;-88
2022/09/28 04:11:20;;;;;;;2.10;1.35;;;;;;;9.56;95.36;99157.50;6665026;26;34676;-88
2022/09/28 04:14:23;;;;;;;2.50;1.42;;;;;;;9.61;94.48;99157.72;6660910;26;34960;-88
2022/09/28 04:17:26;;;;;;;1.30;1.10;;;;;;;9.58;94.90;99156.25;6664628;26;34828;-88
2022/09/28 04:20:32;;;;;;;1.58;1.42;;;;;;;9.58;96.86;99156.25;6630958;26;32817;-89
2022/09/28 04:23:37;;;;;;;1.15;1.00;;;;;;;9.53;98.23;99148.81;6629325;26;34354;-89
2022/09/28 04:26:39;;;;;;;1.20;1.17;;;;;;;9.56;96.18;99154.81;6637172;26;34067;-88
2022/09/28 04:29:42;;;;;;;1.33;1.33;;;;;;;9.55;96.30;99151.28;6637275;26;34281;-88
2022/09/28 04:32:48;;;;;;;1.35;1.05;;;;;;;9.50;96.07;99148.37;6641754;26;35376;-89
2022/09/28 04:36:18;;;;;;;1.10;1.10;;;;;;;9.48;95.84;99150.47;6631109;26;20041;-88
2022/09/28 04:39:23;;;;;;;1.87;1.30;;;;;;;9.48;94.73;99153.16;6670197;26;33934;-88
2022/09/28 04:42:26;;;;;;;1.12;1.12;;;;;;;9.51;95.54;99153.56;6675751;26;35407;-87
2022/09/28 04:45:29;;;;;;;2.58;1.00;;;;;;;9.50;95.33;99149.19;6681497;26;33709;-88
2022/09/28 04:48:33;;;;;;;3.65;1.48;;;;;;;9.45;95.48;99149.00;6667849;26;34614;-88
2022/09/28 04:51:36;;;;;;;1.37;1.30;;;;;;;9.43;96.94;99151.03;6663979;26;33553;-89
2022/09/28 04:54:38;;;;;;;1.30;1.20;;;;;;;9.37;95.83;99151.03;6637078;26;33885;-90
2022/09/28 04:57:41;;;;;;;1.17;1.10;;;;;;;9.35;96.76;99145.84;6663673;26;33706;-91
2022/09/28 05:00:44;;;;;;;1.95;1.20;;;;;;;9.32;96.23;99147.06;6663632;26;33696;-90
2022/09/28 05:03:49;;;;;;;3.22;1.10;;;;;;;9.30;97.67;99150.97;6664337;26;34577;-90
2022/09/28 05:06:53;;;;;;;1.20;1.10;;;;;;;9.20;95.53;99151.34;6663871;26;34065;-90
2022/09/28 05:09:56;;;;;;;3.08;1.40;;;;;;;9.16;97.92;99151.97;6663495;26;33800;-91
2022/09/28 05:13:01;;;;;;;1.92;1.35;;;;;;;9.13;97.27;99158.56;6663929;26;34360;-90
2022/09/28 05:16:03;;;;;;;1.50;1.40;;;;;;;9.09;97.02;99162.66;6663375;26;34081;-91
2022/09/28 05:19:10;;;;;;;1.52;1.42;;;;;;;9.08;96.70;99166.38;6643641;26;32369;-91
2022/09/28 05:22:13;;;;;;;1.40;1.30;;;;;;;9.07;96.48;99164.72;6663808;26;34367;-91
2022/09/28 05:25:17;;;;;;;1.42;1.33;;;;;;;9.09;96.83;99168.84;6642792;26;33613;-91
2022/09/28 05:28:26;;;;;;;1.67;1.45;;;;;;;9.07;97.50;99165.56;6663237;26;34053;-91
2022/09/28 05:31:31;;;;;;;3.08;1.50;;;;;;;9.03;98.94;99166.94;6663108;26;33218;-91
2022/09/28 05:34:35;;;;;;;1.50;1.40;;;;;;;9.00;98.84;99161.97;6664023;26;33639;-91
2022/09/28 05:37:40;;;;;;;1.40;1.30;;;;;;;9.06;97.83;99160.34;6663711;26;34024;-91
2022/09/28 05:40:42;;;;;;;1.67;1.58;;;;;;;9.17;98.59;99162.50;6665746;26;35720;-89
2022/09/28 05:43:45;;;;;;;3.72;1.52;;;;;;;9.31;98.22;99166.09;6680251;26;34259;-89
2022/09/28 05:46:48;;;;;;;2.20;1.50;;;;;;;9.47;99.40;99167.59;6651901;26;140237;-89
2022/09/28 05:49:52;;;;;;;1.60;1.50;;;;;;;9.66;94.77;99169.53;6664240;26;35454;-88
2022/09/28 05:53:00;;;;;;;1.40;1.30;;;;;;;9.81;93.19;99166.69;6663661;26;33598;-89
2022/09/28 05:56:03;;;;;;;2.62;1.40;;;;;;;10.05;93.12;99164.47;6663878;26;33964;-88
2022/09/28 05:59:06;;;;;;;1.10;1.05;;;;;;;10.35;89.47;99168.44;6663372;26;34301;-88
2022/09/28 06:02:09;;;;;;;1.20;1.10;;;;;;;10.84;87.43;99160.97;6664112;26;34132;-88
2022/09/28 06:05:12;;;;;;;1.60;1.50;;;;;;;10.76;84.58;99159.31;6667309;26;34005;-88
2022/09/28 06:08:15;;;;;;;1.87;1.42;;;;;;;10.77;85.43;99154.78;6664474;26;33971;-88
2022/09/28 06:11:18;;;;;;;2.37;1.37;;;;;;;10.69;84.39;99141.53;6660384;26;33898;-88
2022/09/28 06:14:22;;;;;;;3.70;1.45;;;;;;;10.75;85.61;99144.22;6683349;26;34285;-89
2022/09/28 06:25:39;;;;;;;1.77;1.12;;;;;;;11.12;84.28;99142.69;6670245;26;20043;-90
2022/09/28 06:28:45;;;;;;;2.47;1.23;;;;;;;11.25;82.22;99151.75;6639860;26;33371;-90
2022/09/28 06:31:51;;;;;;;2.10;1.12;;;;;;;11.42;82.54;99146.75;6645721;26;33607;-90
2022/09/28 06:35:17;;;;;;;1.02;1.02;;;;;;;11.46;81.08;99159.56;6662453;26;34027;-91
2022/09/28 06:42:59;;;;;;;4.93;1.20;;;;;;;11.84;81.30;99152.53;6663762;26;20035;-90
2022/09/28 06:46:03;;;;;;;3.75;1.42;;;;;;;12.00;80.98;99152.06;6639961;26;32538;-90
2022/09/28 06:49:31;;;;;;;2.05;1.10;;;;;;;12.12;79.41;99152.19;6656227;26;34439;-89
2022/09/28 06:52:39;;;;;;;1.20;1.10;;;;;;;12.29;76.66;99158.72;6637544;26;31697;-89
2022/09/28 06:55:47;;;;;;;2.78;1.35;;;;;;;12.37;75.55;99163.00;6667351;26;33955;-89
2022/09/28 06:58:51;;;;;;;2.87;1.35;;;;;;;12.50;75.46;99171.00;6662185;26;34262;-88
2022/09/28 07:01:54;;;;;;;1.02;1.00;;;;;;;12.61;73.77;99167.59;6667148;26;34289;-90
2022/09/28 07:04:57;;;;;;;1.20;1.10;;;;;;;12.71;73.01;99165.22;6669373;26;35179;-91
2022/09/28 07:08:03;;;;;;;1.42;1.33;;;;;;;12.94;73.37;99170.00;6666788;26;34032;-89
2022/09/28 07:11:09;;;;;;;3.25;1.02;;;;;;;13.11;74.76;99161.31;6667451;26;34437;-90
2022/09/28 07:21:26;;;;;;;2.17;1.30;;;;;;;13.59;69.42;99163.28;6657446;26;34905;-88
2022/09/28 07:24:33;;;;;;;1.45;1.08;;;;;;;13.79;66.88;99158.44;6669702;26;34507;-88
2022/09/28 07:27:43;;;;;;;2.70;1.15;;;;;;;13.86;64.71;99152.09;6648030;26;33755;-88
2022/09/28 07:30:46;;;;;;;1.15;1.10;;;;;;;13.71;65.33;99153.34;6663478;26;34561;-89
2022/09/28 07:33:50;;;;;;;4.82;1.05;;;;;;;13.93;68.04;99147.44;6663309;26;33928;-87
2022/09/28 07:36:56;;;;;;;1.25;1.08;;;;;;;14.06;65.43;99158.88;6669122;26;33879;-88
2022/09/28 07:43:21;;;;;;;1.60;1.30;;;;;;;14.38;65.21;99155.09;6661299;26;34198;-88
2022/09/28 07:46:24;;;;;;;5.78;1.45;;;;;;;14.66;64.58;99162.59;6663833;26;33567;-89
2022/09/28 07:49:29;;;;;;;4.20;1.30;;;;;;;14.95;61.41;99144.56;6669825;26;33777;-90
2022/09/28 07:52:34;;;;;;;2.47;1.10;;;;;;;15.16;61.99;99148.53;6641237;26;33914;-89
2022/09/28 08:00:21;;;;;;;1.67;1.30;;;;;;;15.43;59.50;99162.41;6657980;26;20060;-89
2022/09/28 08:03:46;;;;;;;1.62;1.40;;;;;;;15.34;61.78;99161.13;6664904;26;34130;-88
2022/09/28 08:06:48;;;;;;;1.50;1.15;;;;;;;15.31;62.19;99158.91;6643580;26;32944;-88
2022/09/28 08:09:52;;;;;;;4.20;1.40;;;;;;;15.23;63.38;99159.25;6666108;26;34084;-87
2022/09/28 08:13:02;;;;;;;4.93;2.17;;;;;;;15.04;66.11;99164.81;6663874;26;34010;-88
2022/09/28 08:16:08;;;;;;;1.75;1.55;;;;;;;15.19;67.07;99158.91;6659895;26;34528;-88
2022/09/28 08:19:11;;;;;;;1.80;1.27;;;;;;;15.49;63.67;99161.44;6666700;26;33865;-89
2022/09/28 08:30:12;;;;;;;2.00;1.52;;;;;;;15.78;64.09;99145.22;6646211;26;34391;-88
2022/09/28 08:33:19;;;;;;;2.67;1.20;;;;;;;15.69;64.60;99133.13;6649311;26;32292;-87
2022/09/28 08:36:33;;;;;;;1.67;1.12;;;;;;;15.58;65.89;99130.16;6669305;26;33057;-87
2022/09/28 08:40:13;;;;;;;1.42;1.33;;;;;;;15.71;66.38;99120.97;6645600;26;32598;-87
2022/09/28 08:43:55;;;;;;;1.70;1.30;;;;;;;15.86;66.29;99121.25;6669294;26;35167;-88
2022/09/28 08:47:04;;;;;;;3.37;1.15;;;;;;;15.96;65.44;99120.59;6646495;26;33919;-88
2022/09/28 08:50:14;;;;;;;1.40;1.30;;;;;;;16.10;63.52;99132.78;6641939;26;32946;-89
2022/09/28 08:53:30;;;;;;;1.60;1.50;;;;;;;16.18;63.83;99131.59;6662064;26;34411;-88
2022/09/28 08:56:36;;;;;;;1.90;1.50;;;;;;;16.09;64.02;99138.50;6661811;26;35152;-87
2022/09/28 08:59:44;;;;;;;5.32;1.73;;;;;;;16.27;63.90;99140.16;6662134;26;33814;-88
2022/09/28 09:02:50;;;;;;;4.53;1.70;;;;;;;16.34;63.37;99146.25;6662840;26;35535;-88
2022/09/28 09:06:28;;;;;;;4.18;1.50;;;;;;;16.43;63.63;99133.06;6662785;26;34139;-88
2022/09/28 09:09:40;;;;;;;2.25;1.42;;;;;;;16.32;64.58;99126.63;6664508;26;34455;-88
2022/09/28 09:13:03;;;;;;;2.62;1.42;;;;;;;16.45;62.77;99125.50;6662862;26;34046;-88
2022/09/28 09:16:26;;;;;;;3.78;1.50;;;;;;;16.49;62.17;99129.38;6663613;26;34055;-88
2022/09/28 09:19:36;;;;;;;1.85;1.27;;;;;;;16.34;62.47;99129.94;6663643;26;33835;-88
2022/09/28 09:22:46;;;;;;;1.50;1.40;;;;;;;16.38;62.30;99122.13;6661235;26;34114;-88
2022/09/28 09:26:02;;;;;;;1.60;1.50;;;;;;;16.23;61.77;99123.53;6665046;26;35397;-88
2022/09/28 09:29:12;;;;;;;1.62;1.52;;;;;;;16.20;62.41;99129.44;6644993;26;33869;-88
2022/09/28 09:32:34;;;;;;;1.40;1.30;;;;;;;16.28;64.05;99131.75;6664543;26;34593;-88
2022/09/28 09:36:15;;;;;;;2.10;1.42;;;;;;;16.37;62.55;99129.44;6663507;26;33425;-88
2022/09/28 09:39:41;;;;;;;1.95;1.75;;;;;;;16.52;63.62;99116.09;6642976;26;32899;-89
2022/09/28 09:43:06;;;;;;;2.90;1.10;;;;;;;16.51;60.63;99121.81;6665303;26;34479;-89
2022/09/28 09:46:27;;;;;;;3.12;1.25;;;;;;;16.58;62.56;99124.34;6662883;26;33870;-89
2022/09/28 09:49:44;;;;;;;2.35;1.48;;;;;;;16.72;64.26;99114.78;6642157;26;33617;-89
2022/09/28 09:52:59;;;;;;;3.20;1.48;;;;;;;16.80;62.50;99119.00;6663666;26;34823;-90
2022/09/28 09:56:14;;;;;;;4.22;1.58;;;;;;;17.31;60.14;99116.97;6663531;26;33688;-89
2022/09/28 09:59:27;;;;;;;1.52;1.40;;;;;;;17.55;61.89;99125.69;6635216;26;33610;-88
2022/09/28 10:02:33;;;;;;;1.33;1.23;;;;;;;17.66;58.61;99128.28;6614877;26;33250;-89
2022/09/28 10:05:39;;;;;;;3.03;1.35;;;;;;;17.88;58.68;99122.03;6635366;26;33649;-89
2022/09/28 10:08:48;;;;;;;1.25;1.20;;;;;;;17.84;59.29;99129.91;6621392;26;32445;-89
2022/09/28 10:11:53;;;;;;;1.95;1.23;;;;;;;17.18;58.84;99129.88;6625890;26;33978;-89
2022/09/28 10:14:56;;;;;;;1.42;1.00;;;;;;;17.23;57.25;99126.41;6642053;26;32428;-88
2022/09/28 10:18:08;;;;;;;4.03;1.42;;;;;;;17.23;57.50;99129.12;6642671;26;33541;-88
2022/09/28 10:21:36;;;;;;;1.65;1.02;;;;;;;17.26;57.67;99131.34;6662780;26;33764;-88
2022/09/28 10:24:46;;;;;;;1.40;1.30;;;;;;;17.43;59.63;99128.56;6662941;26;33987;-88
2022/09/28 10:27:51;;;;;;;1.77;1.20;;;;;;;17.67;57.10;99132.66;6668688;26;35219;-89
2022/09/28 10:30:54;;;;;;;1.23;1.12;;;;;;;17.77;57.10;99129.22;6646934;26;32965;-89
2022/09/28 10:33:57;;;;;;;1.48;1.37;;;;;;;17.62;60.63;99131.78;6667632;26;33806;-88
2022/09/28 10:37:03;;;;;;;2.25;1.25;;;;;;;18.06;61.02;99124.37;6665830;26;33988;-89
2022/09/28 10:40:29;;;;;;;1.27;1.10;;;;;;;18.35;58.48;99127.66;6657375;26;34157;-89
2022/09/28 10:47:43;;;;;;;1.30;1.20;;;;;;;18.91;54.72;99121.81;6607625;26;20048;-88
2022/09/28 10:51:03;;;;;;;;;;;;;;;19.13;53.38;99124.41;6635949;26;35003;-88
2022/09/28 10:54:20;;;;;;;3.92;2.00;;;;;;;18.87;54.52;99126.16;6676877;26;35624;-88
2022/09/28 10:57:34;;;;;;;3.65;2.28;;;;;;;19.41;52.50;99123.16;6672714;26;33956;-88
2022/09/28 11:00:42;;;;;;;1.33;1.23;;;;;;;19.55;52.48;99120.78;6646736;26;34332;-88
2022/09/28 11:03:59;;;;;;;1.52;1.15;;;;;;;19.19;51.41;99114.34;6635097;26;34631;-88
2022/09/28 11:07:01;;;;;;;3.62;2.92;;;;;;;19.02;52.28;99115.34;6650927;26;34730;-89
2022/09/28 11:10:05;;;;;;;2.65;2.30;;;;;;;19.51;52.77;99102.44;6661848;26;34299;-89
2022/09/28 11:13:11;;;;;;;1.50;1.40;;;;;;;19.50;51.20;99109.81;6662675;26;34009;-88
2022/09/28 11:16:38;;;;;;;3.55;1.60;;;;;;;19.21;52.86;99110.25;6665494;26;33822;-89
2022/09/28 11:19:42;;;;;;;3.10;1.80;;;;;;;19.03;52.52;99099.78;6662959;26;34897;-88
2022/09/28 11:22:46;;;;;;;3.95;2.00;;;;;;;19.18;54.86;99099.88;6661893;26;34796;-88
2022/09/28 11:26:00;;;;;;;3.53;2.00;;;;;;;20.01;52.52;99090.88;6661978;26;33890;-88
2022/09/28 11:29:04;;;;;;;2.10;1.80;;;;;;;20.74;52.59;99084.34;6622972;26;32368;-88
2022/09/28 11:32:11;;;;;;;3.20;2.33;;;;;;;21.37;47.65;99083.88;6662653;26;34117;-88
2022/09/28 11:35:28;;;;;;;2.67;1.73;;;;;;;21.07;48.48;99077.41;6662609;26;34177;-88
2022/09/28 11:38:39;;;;;;;2.70;1.90;;;;;;;20.52;49.99;99076.38;6663356;26;34172;-88
2022/09/28 11:42:07;;;;;;;4.18;1.70;;;;;;;21.52;47.98;99081.88;6642656;26;33324;-88
2022/09/28 11:45:39;;;;;;;2.35;1.60;;;;;;;23.16;43.69;99077.00;6662774;26;34401;-88
2022/09/28 11:48:50;;;;;;;1.65;1.50;;;;;;;25.00;38.59;99082.47;6648441;26;33047;-88
2022/09/28 11:51:58;;;;;;;1.62;1.20;;;;;;;25.86;36.54;99087.31;6684368;26;35430;-87
2022/09/28 11:55:10;;;;;;;1.55;1.17;;;;;;;26.87;35.44;99070.19;6650248;26;32193;-88
2022/09/28 11:58:26;;;;;;;1.70;1.35;;;;;;;27.62;32.01;99075.00;6663330;26;35441;-92
2022/09/28 12:01:44;;;;;;;1.20;0.90;;;;;;;27.51;34.22;99069.78;6662948;26;33516;-88
2022/09/28 12:04:57;;;;;;;2.03;0.90;;;;;;;27.79;30.22;99067.56;6663230;26;34372;-89
2022/09/28 12:08:12;;;;;;;2.35;0.73;;;;;;;28.08;29.85;99062.50;6662118;26;33942;-89
2022/09/28 12:11:24;;;;;;;1.37;0.75;;;;;;;26.83;31.59;99055.41;6669118;26;33888;-89
2022/09/28 12:14:33;;;;;;;2.80;1.00;;;;;;;28.36;30.34;99046.38;6664438;26;32661;-89
2022/09/28 12:17:47;;;;;;;0.98;0.80;;;;;;;28.70;30.46;99035.25;6658834;26;34199;-89
2022/09/28 12:21:06;;;;;;;0.73;0.73;;;;;;;29.43;27.81;99031.47;6660382;26;34375;-90
2022/09/28 12:24:18;;;;;;;0.60;0.60;;;;;;;27.64;30.82;99032.03;6666877;26;34867;-89
2022/09/28 12:27:24;;;;;;;1.83;0.60;;;;;;;29.11;29.69;99028.25;6647210;26;32857;-89
2022/09/28 12:30:32;;;;;;;0.80;0.55;;;;;;;28.38;28.98;99035.78;6648292;26;33390;-90
2022/09/28 12:33:36;;;;;;;0.52;0.52;;;;;;;27.31;31.06;99024.19;6667245;26;34453;-90
2022/09/28 12:37:12;;;;;;;0.60;0.60;;;;;;;27.90;29.31;99026.56;6648852;26;32755;-90
2022/09/28 12:40:46;;;;;;;1.58;0.60;;;;;;;28.86;29.22;99013.31;6644281;26;32338;-90
2022/09/28 12:43:59;;;;;;;2.83;0.77;;;;;;;28.19;30.82;99009.28;6664995;26;35328;-90
2022/09/28 12:47:23;;;;;;;0.85;0.47;;;;;;;25.52;34.23;98997.66;6664816;26;34563;-89
2022/09/28 12:50:40;;;;;;;2.25;0.70;;;;;;;25.62;34.77;99002.91;6665073;26;34225;-89
2022/09/28 12:54:06;;;;;;;0.63;0.63;;;;;;;27.09;31.44;99000.25;6642811;26;32816;-89
2022/09/28 12:57:40;;;;;;;1.00;0.57;;;;;;;25.18;35.33;98998.12;6642890;26;32336;-89
2022/09/28 13:01:16;;;;;;;0.80;0.55;;;;;;;23.61;37.05;99004.19;6670582;26;33933;-89
2022/09/28 13:04:44;;;;;;;0.65;0.40;;;;;;;25.33;34.48;99003.28;6652863;26;34240;-89
2022/09/28 13:08:00;;;;;;;0.68;0.50;;;;;;;27.83;30.08;99000.53;6681390;26;33901;-90
2022/09/28 13:11:30;;;;;;;0.50;0.50;;;;;;;28.54;28.62;99012.00;6670439;26;34084;-89
2022/09/28 13:14:51;;;;;;;0.47;0.40;;;;;;;28.75;27.77;99014.84;6644993;26;34105;-89
2022/09/28 13:18:21;;;;;;;1.52;0.40;;;;;;;27.03;29.83;98996.00;6673399;26;35458;-89
2022/09/28 13:21:48;;;;;;;0.85;0.40;;;;;;;25.55;33.81;98997.84;6662620;26;34081;-88
2022/09/28 13:24:56;;;;;;;1.33;0.60;;;;;;;25.82;33.03;98996.13;6671532;26;35444;-89
2022/09/28 13:28:02;;;;;;;1.12;0.62;;;;;;;24.33;35.63;98998.34;6644389;26;32386;-89
2022/09/28 13:31:06;;;;;;;1.55;0.60;;;;;;;23.76;36.69;98998.47;6662638;26;34225;-89
2022/09/28 13:34:18;;;;;;;0.88;0.60;;;;;;;23.61;35.92;99009.66;6662345;26;33664;-90
2022/09/28 13:37:23;;;;;;;2.42;0.57;;;;;;;22.76;37.39;99002.25;6662024;26;33893;-89
2022/09/28 13:41:04;;;;;;;0.62;0.50;;;;;;;22.30;39.09;99000.78;6642723;26;32217;-89
2022/09/28 13:44:11;;;;;;;0.47;0.47;;;;;;;22.08;39.68;98995.72;6661775;26;34279;-90
2022/09/28 13:47:49;;;;;;;1.48;0.68;;;;;;;21.52;39.43;98999.72;6664132;26;34006;-90
2022/09/28 13:51:14;;;;;;;0.60;0.60;;;;;;;20.56;43.34;98996.31;6679277;26;35853;-89
2022/09/28 13:54:49;;;;;;;1.12;0.65;;;;;;;20.21;43.26;98988.13;6669544;26;34405;-90
2022/09/28 13:58:05;;;;;;;1.83;0.52;;;;;;;19.62;44.97;98990.28;6665226;26;34525;-89
2022/09/28 14:01:14;;;;;;;0.85;0.70;;;;;;;19.06;46.49;98992.06;6665447;26;33698;-89
2022/09/28 14:04:23;;;;;;;0.65;0.60;;;;;;;18.70;46.94;99008.25;6665091;26;34085;-89
2022/09/28 14:07:57;;;;;;;0.93;0.57;;;;;;;18.65;47.06;99000.84;6642939;26;33406;-89
2022/09/28 14:11:39;;;;;;;0.90;0.50;;;;;;;18.57;48.79;98988.56;6669376;26;34166;-89
2022/09/28 14:14:51;;;;;;;0.88;0.60;;;;;;;18.42;49.32;98990.34;6675963;26;33831;-88
2022/09/28 14:18:22;;;;;;;0.85;0.60;;;;;;;18.78;47.94;98994.97;6650067;26;32277;-89
2022/09/28 14:21:50;;;;;;;1.77;0.70;;;;;;;18.89;46.97;99000.44;6646152;26;33285;-88
2022/09/28 14:25:12;;;;;;;0.68;0.68;;;;;;;18.71;48.34;98994.31;6645476;26;34272;-88
2022/09/28 14:28:30;;;;;;;1.65;0.60;;;;;;;18.73;46.80;98989.47;6668640;26;34191;-88
2022/09/28 14:31:41;;;;;;;5.15;0.90;;;;;;;18.95;46.29;98986.59;6667542;26;34706;-88
2022/09/28 14:34:46;;;;;;;0.50;0.50;;;;;;;18.94;47.65;98992.28;6645284;26;32449;-88
2022/09/28 14:41:16;;;;;;;0.55;0.55;;;;;;;18.43;47.50;98990.09;6644395;26;33332;-88
2022/09/28 14:44:19;;;;;;;0.65;0.65;;;;;;;18.24;47.77;98975.25;6663263;26;33821;-89
2022/09/28 14:47:43;;;;;;;0.93;0.60;;;;;;;18.23;47.83;98974.44;6664148;26;34406;-88
2022/09/28 14:50:48;;;;;;;1.45;0.60;;;;;;;17.94;50.15;98987.56;6643106;26;32556;-89
2022/09/28 14:54:00;;;;;;;4.12;0.80;;;;;;;17.93;49.60;98979.66;6646295;26;33500;-90
2022/09/28 14:57:15;;;;;;;0.80;0.60;;;;;;;17.81;49.59;98983.41;6675556;26;35597;-89
2022/09/28 15:00:24;;;;;;;0.70;0.60;;;;;;;17.68;51.93;98972.91;6643931;26;32590;-89
2022/09/28 15:03:31;;;;;;;0.80;0.80;;;;;;;17.62;51.85;98974.75;6642923;26;33740;-91
2022/09/28 15:06:45;;;;;;;1.75;0.80;;;;;;;17.58;51.77;98980.94;6663165;26;35098;-93
2022/09/28 15:09:53;;;;;;;0.85;0.80;;;;;;;17.47;51.73;98963.72;6662101;26;34798;-89
2022/09/28 15:13:00;;;;;;;3.37;0.98;;;;;;;17.30;52.57;98966.53;6666648;26;34382;-89
2022/09/28 15:16:08;;;;;;;0.80;0.70;;;;;;;17.25;52.99;98965.66;6644630;26;32884;-90
2022/09/28 15:19:31;;;;;;;4.28;1.00;;;;;;;17.33;52.83;98965.22;6664338;26;33649;-90
2022/09/28 15:22:36;;;;;;;2.17;0.90;;;;;;;17.20;54.00;98966.47;6664283;26;34462;-89
2022/09/28 15:25:38;;;;;;;1.12;1.00;;;;;;;17.18;53.85;98960.44;6643603;26;33504;-89
2022/09/28 15:28:43;;;;;;;1.27;0.93;;;;;;;17.13;54.79;98952.22;6643631;26;32506;-89
2022/09/28 15:31:46;;;;;;;3.00;0.85;;;;;;;17.22;55.35;98961.56;6663539;26;34483;-88
2022/09/28 15:34:57;;;;;;;0.60;0.60;;;;;;;17.07;55.61;98953.25;6663543;26;34581;-89
2022/09/28 15:37:59;;;;;;;2.03;1.00;;;;;;;17.00;56.56;98953.44;6663919;26;33637;-89
2022/09/28 15:41:05;;;;;;;2.95;0.95;;;;;;;16.97;55.72;98952.06;6663906;26;34678;-89
2022/09/28 15:44:11;;;;;;;1.83;0.80;;;;;;;17.03;55.43;98957.56;6642865;26;33827;-89
2022/09/28 15:47:28;;;;;;;1.87;0.75;;;;;;;16.74;55.49;98955.00;6663000;26;34687;-88
2022/09/28 15:50:33;;;;;;;1.10;0.90;;;;;;;16.80;55.81;98962.19;6663268;26;34189;-89
2022/09/28 15:53:42;;;;;;;2.20;0.73;;;;;;;16.64;57.17;98963.03;6642982;26;33076;-89
2022/09/28 15:56:54;;;;;;;2.50;1.10;;;;;;;16.53;56.19;98972.97;6662927;26;33963;-89
2022/09/28 15:59:58;;;;;;;1.73;1.17;;;;;;;16.39;58.57;98977.91;6641031;26;34013;-89
